Time;durP1;ratioP1;P1;durP2;ratioP2;P2;SDS_P1;SDS_P2;PMS_P1;PMS_P2;Temp;Humidity;BMP_temperature;BMP_pressure;BME280_temperature;BME280_humidity;BME280_pressure;Samples;Min_cycle;Max_cycle;Signal;HPM_P1;HPM_P2
2023/01/26 00:02:16;;;;;;;;;;;16.80;87.00;;;;;;5094481;28;19915;-43
2023/01/26 00:04:42;;;;;;;;;;;16.80;87.00;;;;;;5094833;28;19954;-43
2023/01/26 00:07:07;;;;;;;;;;;16.80;86.90;;;;;;5094380;28;19914;-44
2023/01/26 00:09:33;;;;;;;;;;;16.80;87.00;;;;;;5094662;28;19908;-44
2023/01/26 00:11:58;;;;;;;;;;;16.80;86.90;;;;;;5094489;28;19908;-43
2023/01/26 00:14:24;;;;;;;;;;;16.80;86.90;;;;;;5094394;28;19958;-43
2023/01/26 00:16:49;;;;;;;;;;;16.80;86.90;;;;;;5094420;28;19916;-43
2023/01/26 00:19:15;;;;;;;;;;;16.80;86.80;;;;;;5094826;28;19912;-43
2023/01/26 00:21:40;;;;;;;;;;;16.80;86.80;;;;;;5094216;28;19919;-44
2023/01/26 00:24:06;;;;;;;;;;;16.80;86.90;;;;;;5094378;28;19915;-44
2023/01/26 00:26:31;;;;;;;;;;;16.80;86.90;;;;;;5094444;28;19916;-43
2023/01/26 00:28:58;;;;;;;;;;;16.80;86.80;;;;;;5094374;28;19955;-43
2023/01/26 00:31:25;;;;;;;;;;;16.90;86.80;;;;;;5094128;28;19908;-44
2023/01/26 00:33:52;;;;;;;;;;;16.90;86.70;;;;;;5075836;28;19915;-43
2023/01/26 00:36:17;;;;;;;;;;;16.90;86.90;;;;;;5094204;28;19957;-45
2023/01/26 00:38:43;;;;;;;;;;;16.90;86.90;;;;;;5094439;28;19923;-43
2023/01/26 00:42:05;;;;;;;;;;;16.90;86.90;;;;;;5094246;28;19915;-45
2023/01/26 00:43:54;;;;;;;;;;;17.00;87.00;;;;;;5094020;28;19915;-43
2023/01/26 00:46:19;;;;;;;;;;;16.90;86.90;;;;;;5093974;28;20224;-44
2023/01/26 00:48:45;;;;;;;;;;;16.90;87.00;;;;;;5094254;28;19908;-43
2023/01/26 00:51:10;;;;;;;;;;;16.90;87.10;;;;;;5094155;28;19912;-43
2023/01/26 00:53:36;;;;;;;;;;;16.90;87.00;;;;;;5094125;28;20002;-43
2023/01/26 00:56:01;;;;;;;;;;;16.80;87.00;;;;;;5094311;28;20247;-44
2023/01/26 00:58:27;;;;;;;;;;;16.80;87.00;;;;;;5094151;28;19931;-45
2023/01/26 01:00:52;;;;;;;;;;;16.80;87.00;;;;;;5075705;28;19909;-47
2023/01/26 01:03:18;;;;;;;;;;;16.80;87.00;;;;;;5093756;28;19908;-45
2023/01/26 01:05:43;;;;;;;;;;;16.80;87.00;;;;;;5093976;28;19915;-44
2023/01/26 01:08:09;;;;;;;;;;;16.80;87.10;;;;;;5093820;28;19908;-44
2023/01/26 01:10:34;;;;;;;;;;;16.80;86.90;;;;;;5093624;28;19908;-44
2023/01/26 01:13:00;;;;;;;;;;;16.90;86.80;;;;;;5093650;28;19915;-43
2023/01/26 01:15:25;;;;;;;;;;;16.90;86.60;;;;;;5093893;28;20333;-46
2023/01/26 01:17:51;;;;;;;;;;;17.00;86.50;;;;;;5094017;28;19927;-44
2023/01/26 01:20:16;;;;;;;;;;;17.00;86.30;;;;;;5075752;28;20334;-43
2023/01/26 01:22:42;;;;;;;;;;;17.00;86.30;;;;;;5093585;28;19961;-44
2023/01/26 01:25:07;;;;;;;;;;;17.00;86.30;;;;;;5093852;28;20363;-43
2023/01/26 01:27:33;;;;;;;;;;;17.00;86.70;;;;;;5093524;28;19908;-45
2023/01/26 01:29:58;;;;;;;;;;;17.00;86.70;;;;;;5093528;28;19908;-43
2023/01/26 01:32:24;;;;;;;;;;;17.00;86.70;;;;;;5093543;28;19914;-44
2023/01/26 01:34:49;;;;;;;;;;;16.90;86.80;;;;;;5093717;28;19915;-43
2023/01/26 01:37:15;;;;;;;;;;;16.90;86.80;;;;;;5093382;28;20019;-45
2023/01/26 01:39:41;;;;;;;;;;;16.90;86.90;;;;;;5093435;28;19912;-46
2023/01/26 01:42:06;;;;;;;;;;;16.90;87.00;;;;;;5093718;28;19920;-44
2023/01/26 01:44:36;;;;;;;;;;;16.90;87.00;;;;;;5094468;28;19952;-43
2023/01/26 01:47:02;;;;;;;;;;;16.90;87.00;;;;;;5097315;28;19912;-43
2023/01/26 01:49:33;;;;;;;;;;;16.80;87.10;;;;;;5097059;28;20007;-45
2023/01/26 01:52:04;;;;;;;;;;;16.80;87.20;;;;;;5097038;28;20270;-43
2023/01/26 01:54:37;;;;;;;;;;;16.80;87.20;;;;;;5096950;28;19912;-43
2023/01/26 01:57:14;;;;;;;;;;;16.80;87.20;;;;;;5097238;28;19912;-43
2023/01/26 01:59:50;;;;;;;;;;;16.80;87.10;;;;;;5097195;28;19919;-43
2023/01/26 02:02:16;;;;;;;;;;;16.90;87.00;;;;;;5097136;28;19916;-43
2023/01/26 02:04:42;;;;;;;;;;;16.90;86.80;;;;;;5097133;28;20319;-43
2023/01/26 02:07:09;;;;;;;;;;;16.90;86.60;;;;;;5097338;28;20002;-44
2023/01/26 02:12:25;;;;;;;;;;;17.00;86.50;;;;;;5096736;28;19981;-43
2023/01/26 02:14:51;;;;;;;;;;;17.00;86.50;;;;;;5096888;28;19939;-45
2023/01/26 02:17:17;;;;;;;;;;;17.00;86.40;;;;;;5076243;28;19913;-45
2023/01/26 02:19:42;;;;;;;;;;;17.00;86.40;;;;;;5085558;28;19916;-45
2023/01/26 02:22:13;;;;;;;;;;;16.90;86.50;;;;;;5078586;28;19937;-46
2023/01/26 02:24:40;;;;;;;;;;;16.90;86.50;;;;;;5096451;28;19973;-45
2023/01/26 02:27:05;;;;;;;;;;;16.90;86.70;;;;;;5096232;28;20399;-44
2023/01/26 02:29:31;;;;;;;;;;;16.90;86.80;;;;;;5096585;28;19912;-43
2023/01/26 02:31:56;;;;;;;;;;;16.80;86.90;;;;;;5096519;28;20007;-43
2023/01/26 02:34:24;;;;;;;;;;;16.80;87.00;;;;;;5095828;28;20262;-46
2023/01/26 02:36:58;;;;;;;;;;;16.80;87.00;;;;;;5094877;28;19916;-46
2023/01/26 02:39:24;;;;;;;;;;;16.80;86.90;;;;;;5078253;28;20338;-43
2023/01/26 02:44:35;;;;;;;;;;;16.80;87.30;;;;;;5096455;28;20456;-44
2023/01/26 02:47:00;;;;;;;;;;;16.80;87.30;;;;;;5097217;28;19994;-45
2023/01/26 02:52:10;;;;;;;;;;;16.80;87.40;;;;;;5095946;28;19992;-43
2023/01/26 02:57:19;;;;;;;;;;;16.80;87.20;;;;;;5095972;28;19934;-47
2023/01/26 02:59:45;;;;;;;;;;;16.80;87.10;;;;;;5115298;28;20351;-46
2023/01/26 03:02:10;;;;;;;;;;;16.80;87.10;;;;;;5111834;28;20077;-46
2023/01/26 03:04:36;;;;;;;;;;;16.90;87.10;;;;;;5084381;28;19908;-44
2023/01/26 03:07:01;;;;;;;;;;;16.90;86.80;;;;;;5095828;28;19957;-43
2023/01/26 03:09:27;;;;;;;;;;;17.00;86.70;;;;;;5092014;28;19912;-45
2023/01/26 03:11:52;;;;;;;;;;;17.00;86.50;;;;;;5095669;28;19930;-44
2023/01/26 03:14:18;;;;;;;;;;;17.00;86.50;;;;;;5095872;28;20259;-46
2023/01/26 03:16:43;;;;;;;;;;;17.10;86.50;;;;;;5095539;28;19912;-43
2023/01/26 03:27:27;;;;;;;;;;;16.90;86.70;;;;;;5095144;28;19969;-44
2023/01/26 03:29:54;;;;;;;;;;;16.90;86.80;;;;;;5095368;28;19915;-42
2023/01/26 03:32:19;;;;;;;;;;;16.90;86.90;;;;;;5095031;28;19962;-43
2023/01/26 03:34:45;;;;;;;;;;;16.80;86.80;;;;;;5095011;28;19912;-45
2023/01/26 03:37:10;;;;;;;;;;;16.80;87.00;;;;;;5093051;28;20333;-47
2023/01/26 03:56:21;;;;;;;;;;;16.80;87.10;;;;;;5094527;28;19961;-43
2023/01/26 03:58:51;;;;;;;;;;;16.80;87.00;;;;;;5094935;28;19912;-45
2023/01/26 04:01:19;;;;;;;;;;;16.90;86.90;;;;;;5094268;28;19919;-44
2023/01/26 04:09:14;;;;;;;;;;;17.10;86.30;;;;;;5092107;28;20007;-44
2023/01/26 04:11:39;;;;;;;;;;;17.10;86.40;;;;;;5074365;28;20003;-43
2023/01/26 04:22:17;;;;;;;;;;;17.00;86.70;;;;;;5093074;28;19997;-44
2023/01/26 04:24:43;;;;;;;;;;;17.00;86.70;;;;;;5094493;28;19908;-42
2023/01/26 04:27:10;;;;;;;;;;;17.00;86.90;;;;;;5076303;28;19908;-43
2023/01/26 04:29:36;;;;;;;;;;;17.00;86.90;;;;;;5076299;28;20018;-43
2023/01/26 04:32:01;;;;;;;;;;;16.90;86.90;;;;;;5094179;28;20030;-46
2023/01/26 04:34:26;;;;;;;;;;;16.90;86.90;;;;;;5093931;28;19912;-43
2023/01/26 04:36:52;;;;;;;;;;;16.90;87.00;;;;;;5075906;28;19979;-44
2023/01/26 04:39:19;;;;;;;;;;;16.80;87.00;;;;;;5093523;28;21190;-43
2023/01/26 04:41:45;;;;;;;;;;;16.80;87.10;;;;;;5094247;28;19956;-44
2023/01/26 04:44:10;;;;;;;;;;;16.80;87.10;;;;;;5094176;28;19908;-43
2023/01/26 04:46:36;;;;;;;;;;;16.80;87.10;;;;;;5075781;28;19957;-46
2023/01/26 04:49:01;;;;;;;;;;;16.80;87.10;;;;;;5093848;28;19914;-46
2023/01/26 04:51:27;;;;;;;;;;;16.70;87.10;;;;;;5093816;28;20347;-44
2023/01/26 04:53:52;;;;;;;;;;;16.80;87.10;;;;;;5093826;28;19908;-43
2023/01/26 04:56:28;;;;;;;;;;;16.80;87.00;;;;;;5094115;28;20423;-44
2023/01/26 04:58:54;;;;;;;;;;;16.90;86.70;;;;;;5093757;28;19912;-44
2023/01/26 05:01:20;;;;;;;;;;;17.10;86.20;;;;;;5075817;28;19916;-42
2023/01/26 05:03:46;;;;;;;;;;;17.30;85.60;;;;;;5094032;28;19915;-42
2023/01/26 05:06:11;;;;;;;;;;;17.40;85.00;;;;;;5093604;28;19912;-43
2023/01/26 05:08:37;;;;;;;;;;;17.50;84.90;;;;;;5093899;28;19995;-44
2023/01/26 05:11:03;;;;;;;;;;;17.50;84.90;;;;;;5093529;28;19951;-44
2023/01/26 05:13:28;;;;;;;;;;;17.50;84.80;;;;;;5093458;28;19915;-43
2023/01/26 05:15:54;;;;;;;;;;;17.40;84.90;;;;;;5093824;28;20343;-43
2023/01/26 05:18:19;;;;;;;;;;;17.40;85.10;;;;;;5094291;28;20432;-45
2023/01/26 05:20:45;;;;;;;;;;;17.30;85.20;;;;;;5097558;28;19915;-46
2023/01/26 05:23:10;;;;;;;;;;;17.30;85.50;;;;;;5097261;28;19973;-44
2023/01/26 05:25:36;;;;;;;;;;;17.20;85.60;;;;;;5097465;28;19930;-43
2023/01/26 05:28:01;;;;;;;;;;;17.20;85.70;;;;;;5097385;28;19920;-43
2023/01/26 05:30:26;;;;;;;;;;;17.10;85.90;;;;;;5097266;28;20278;-43
2023/01/26 05:32:52;;;;;;;;;;;17.10;86.10;;;;;;5097209;28;19954;-44
2023/01/26 05:35:17;;;;;;;;;;;17.10;86.10;;;;;;5097421;28;19908;-42
2023/01/26 05:37:44;;;;;;;;;;;17.00;86.30;;;;;;5097336;28;20366;-42
2023/01/26 05:40:10;;;;;;;;;;;17.00;86.40;;;;;;5097253;28;19912;-47
2023/01/26 05:42:36;;;;;;;;;;;17.00;86.60;;;;;;5096899;28;20413;-43
2023/01/26 05:45:01;;;;;;;;;;;16.90;86.50;;;;;;5097591;28;19912;-45
2023/01/26 05:47:27;;;;;;;;;;;16.90;86.60;;;;;;5097193;28;19956;-43
2023/01/26 05:49:52;;;;;;;;;;;16.90;86.70;;;;;;5097289;28;19934;-44
2023/01/26 05:52:19;;;;;;;;;;;16.90;86.60;;;;;;5097288;28;19915;-43
2023/01/26 05:54:45;;;;;;;;;;;16.90;86.60;;;;;;5097148;28;20251;-49
2023/01/26 05:57:11;;;;;;;;;;;16.90;86.60;;;;;;5096698;28;19919;-49
2023/01/26 05:59:37;;;;;;;;;;;16.90;86.50;;;;;;5097223;28;20011;-44
2023/01/26 06:02:02;;;;;;;;;;;17.00;86.30;;;;;;5096586;28;19987;-44
2023/01/26 06:04:28;;;;;;;;;;;17.00;86.20;;;;;;5096861;28;19908;-42
2023/01/26 06:06:54;;;;;;;;;;;17.00;86.10;;;;;;5096342;28;19908;-45
2023/01/26 06:09:19;;;;;;;;;;;17.10;86.10;;;;;;5096314;28;20414;-42
2023/01/26 06:11:45;;;;;;;;;;;17.10;86.00;;;;;;5078888;28;19962;-44
2023/01/26 06:14:10;;;;;;;;;;;17.10;86.10;;;;;;5096752;28;19909;-45
2023/01/26 06:16:36;;;;;;;;;;;17.00;86.00;;;;;;5096189;28;19912;-43
2023/01/26 06:19:01;;;;;;;;;;;17.00;86.10;;;;;;5096597;28;19916;-44
2023/01/26 06:21:27;;;;;;;;;;;17.00;86.20;;;;;;5096486;28;19908;-45
2023/01/26 06:23:53;;;;;;;;;;;16.90;86.20;;;;;;5096276;28;19908;-43
2023/01/26 06:26:18;;;;;;;;;;;16.90;86.30;;;;;;5096402;28;19948;-45
2023/01/26 06:28:43;;;;;;;;;;;16.90;86.40;;;;;;5096076;28;19951;-48
2023/01/26 06:31:12;;;;;;;;;;;16.90;86.60;;;;;;5095611;28;19988;-44
2023/01/26 06:33:38;;;;;;;;;;;16.80;86.80;;;;;;5095995;28;19933;-43
2023/01/26 06:36:04;;;;;;;;;;;16.80;87.00;;;;;;5095794;28;19912;-42
2023/01/26 06:38:30;;;;;;;;;;;16.80;87.10;;;;;;5095766;28;19927;-42
2023/01/26 06:41:02;;;;;;;;;;;16.80;87.20;;;;;;5095621;28;20275;-43
2023/01/26 06:43:29;;;;;;;;;;;16.80;87.20;;;;;;5095468;28;20382;-46
2023/01/26 06:45:55;;;;;;;;;;;16.80;87.10;;;;;;5095791;28;20274;-44
2023/01/26 06:48:21;;;;;;;;;;;16.80;87.20;;;;;;5095573;28;19919;-44
2023/01/26 06:50:48;;;;;;;;;;;16.80;87.00;;;;;;5095732;28;20263;-44
2023/01/26 06:53:22;;;;;;;;;;;16.90;86.80;;;;;;5095751;28;19955;-45
2023/01/26 06:55:48;;;;;;;;;;;17.10;86.30;;;;;;5095557;28;19947;-43
2023/01/26 06:58:14;;;;;;;;;;;17.40;85.60;;;;;;5095539;28;20416;-43
2023/01/26 07:00:39;;;;;;;;;;;17.50;85.20;;;;;;5092965;28;19932;-43
2023/01/26 07:03:05;;;;;;;;;;;17.60;84.90;;;;;;5095614;28;19908;-44
2023/01/26 07:05:31;;;;;;;;;;;17.60;84.80;;;;;;5095807;28;19961;-44
2023/01/26 07:07:59;;;;;;;;;;;17.60;84.90;;;;;;5095095;28;19908;-44
2023/01/26 07:10:24;;;;;;;;;;;17.50;84.80;;;;;;5095516;28;19988;-44
2023/01/26 07:12:50;;;;;;;;;;;17.50;85.00;;;;;;5095342;28;19918;-46
2023/01/26 07:15:15;;;;;;;;;;;17.40;85.10;;;;;;5096745;28;19911;-43
2023/01/26 07:17:41;;;;;;;;;;;17.40;85.20;;;;;;5106682;28;19920;-44
2023/01/26 07:20:06;;;;;;;;;;;17.30;85.30;;;;;;5095271;28;19912;-43
2023/01/26 07:22:32;;;;;;;;;;;17.30;85.50;;;;;;5099499;28;20631;-43
2023/01/26 07:24:57;;;;;;;;;;;17.20;85.60;;;;;;5114677;28;19911;-51
2023/01/26 07:27:23;;;;;;;;;;;17.20;85.80;;;;;;5107613;28;20420;-42
2023/01/26 07:29:50;;;;;;;;;;;17.30;86.00;;;;;;5088797;28;20250;-46
2023/01/26 07:32:15;;;;;;;;;;;17.30;86.20;;;;;;5101451;28;20351;-46
2023/01/26 07:34:41;;;;;;;;;;;17.40;86.10;;;;;;5107087;28;20018;-49
2023/01/26 07:37:06;;;;;;;;;;;17.40;83.70;;;;;;5091960;28;20421;-49
2023/01/26 07:39:32;;;;;;;;;;;17.40;82.40;;;;;;5110612;28;19912;-48
2023/01/26 07:41:57;;;;;;;;;;;17.60;84.50;;;;;;5110976;28;19914;-45
2023/01/26 07:44:23;;;;;;;;;;;17.70;84.50;;;;;;5103678;28;19947;-42
2023/01/26 07:46:48;;;;;;;;;;;17.90;84.30;;;;;;5114487;28;19915;-45
2023/01/26 07:49:13;;;;;;;;;;;18.00;83.70;;;;;;5111291;28;20002;-43
2023/01/26 07:51:39;;;;;;;;;;;18.20;83.30;;;;;;5090363;28;19969;-43
2023/01/26 07:54:05;;;;;;;;;;;18.30;82.90;;;;;;5115043;28;19908;-44
2023/01/26 07:56:30;;;;;;;;;;;18.50;82.50;;;;;;5080465;28;20001;-43
2023/01/26 07:58:56;;;;;;;;;;;18.60;81.90;;;;;;5094371;28;19944;-46
2023/01/26 08:01:22;;;;;;;;;;;18.70;82.00;;;;;;5076561;28;20354;-45
2023/01/26 08:03:52;;;;;;;;;;;18.80;81.70;;;;;;5095664;28;19908;-44
2023/01/26 08:06:18;;;;;;;;;;;18.90;81.40;;;;;;5103711;28;20446;-44
2023/01/26 08:08:44;;;;;;;;;;;19.00;81.20;;;;;;5114782;28;20261;-44
2023/01/26 08:11:10;;;;;;;;;;;19.10;81.00;;;;;;5088838;28;19912;-44
2023/01/26 08:13:36;;;;;;;;;;;19.10;81.00;;;;;;5114577;28;19912;-45
2023/01/26 08:16:10;;;;;;;;;;;19.20;81.00;;;;;;5110882;28;19922;-47
2023/01/26 08:18:36;;;;;;;;;;;19.30;80.80;;;;;;5106028;28;20255;-45
2023/01/26 08:21:02;;;;;;;;;;;19.30;80.80;;;;;;5114747;28;19912;-44
2023/01/26 08:23:27;;;;;;;;;;;19.40;80.70;;;;;;5112715;28;19911;-43
2023/01/26 08:25:53;;;;;;;;;;;19.50;80.60;;;;;;5108033;28;19912;-43
2023/01/26 08:28:18;;;;;;;;;;;19.50;80.50;;;;;;5101521;28;19919;-44
2023/01/26 08:30:44;;;;;;;;;;;19.60;80.40;;;;;;5105974;28;20006;-43
2023/01/26 08:33:09;;;;;;;;;;;19.60;80.30;;;;;;5111066;28;19912;-45
2023/01/26 08:35:35;;;;;;;;;;;19.70;79.50;;;;;;5089230;28;19912;-45
2023/01/26 08:38:00;;;;;;;;;;;19.70;80.00;;;;;;5094729;28;19928;-45
2023/01/26 08:40:26;;;;;;;;;;;19.70;79.70;;;;;;5102325;28;19912;-46
2023/01/26 08:42:51;;;;;;;;;;;19.80;80.00;;;;;;5086681;28;19977;-47
2023/01/26 08:45:17;;;;;;;;;;;19.80;80.00;;;;;;5085953;28;19914;-46
2023/01/26 08:47:42;;;;;;;;;;;19.80;80.60;;;;;;5073852;28;20007;-44
2023/01/26 08:50:08;;;;;;;;;;;19.70;80.00;;;;;;5087673;28;19908;-46
2023/01/26 08:52:33;;;;;;;;;;;19.70;80.10;;;;;;5094011;28;19938;-47
2023/01/26 08:54:59;;;;;;;;;;;19.70;80.20;;;;;;5097949;28;20351;-46
2023/01/26 08:57:25;;;;;;;;;;;19.70;80.30;;;;;;5101294;28;19939;-46
2023/01/26 08:59:51;;;;;;;;;;;19.70;80.30;;;;;;5118616;28;20374;-48
2023/01/26 09:02:16;;;;;;;;;;;19.70;80.40;;;;;;5103946;28;19947;-46
2023/01/26 09:04:42;;;;;;;;;;;19.70;80.30;;;;;;5107495;28;19912;-46
2023/01/26 09:07:07;;;;;;;;;;;19.70;80.40;;;;;;5107291;28;19916;-46
2023/01/26 09:09:33;;;;;;;;;;;19.70;80.20;;;;;;5102095;28;20397;-47
2023/01/26 09:11:58;;;;;;;;;;;19.80;80.20;;;;;;5118296;28;19915;-47
2023/01/26 09:14:24;;;;;;;;;;;19.80;80.20;;;;;;5118210;28;20355;-48
2023/01/26 09:16:49;;;;;;;;;;;19.90;80.10;;;;;;5086401;28;19920;-46
2023/01/26 09:19:14;;;;;;;;;;;19.90;79.90;;;;;;5097598;28;19913;-45
2023/01/26 09:21:40;;;;;;;;;;;20.00;79.90;;;;;;5097744;28;19912;-46
2023/01/26 09:24:06;;;;;;;;;;;19.90;80.30;;;;;;5097332;28;19908;-46
2023/01/26 09:26:32;;;;;;;;;;;20.00;79.90;;;;;;5082592;28;19922;-47
2023/01/26 09:28:57;;;;;;;;;;;20.00;79.90;;;;;;5117970;28;20325;-49
2023/01/26 09:31:23;;;;;;;;;;;20.00;79.80;;;;;;5117815;28;20010;-45
2023/01/26 09:33:49;;;;;;;;;;;20.00;79.80;;;;;;5117972;28;19907;-44
2023/01/26 09:36:14;;;;;;;;;;;20.10;79.80;;;;;;5103306;28;19928;-45
2023/01/26 09:38:40;;;;;;;;;;;20.10;79.70;;;;;;5104933;28;20018;-44
2023/01/26 09:41:05;;;;;;;;;;;20.10;79.50;;;;;;5106943;28;19916;-49
2023/01/26 09:43:34;;;;;;;;;;;20.10;79.60;;;;;;5104062;28;20001;-46
2023/01/26 09:46:03;;;;;;;;;;;20.20;79.70;;;;;;5117668;28;19907;-43
2023/01/26 09:48:34;;;;;;;;;;;20.20;79.60;;;;;;5079934;28;19908;-46
2023/01/26 09:51:04;;;;;;;;;;;20.20;79.40;;;;;;5096916;28;19999;-49
2023/01/26 09:53:42;;;;;;;;;;;20.30;79.30;;;;;;5097204;28;19915;-45
2023/01/26 09:56:14;;;;;;;;;;;20.30;79.30;;;;;;5101273;28;19912;-47
2023/01/26 09:58:41;;;;;;;;;;;20.30;79.20;;;;;;5101486;28;20420;-45
2023/01/26 10:01:36;;;;;;;;;;;20.30;79.20;;;;;;5099171;28;19908;-44
2023/01/26 10:04:11;;;;;;;;;;;20.30;79.40;;;;;;5044265;28;19959;-44
2023/01/26 10:06:36;;;;;;;;;;;20.20;79.60;;;;;;5116017;28;20057;-49
2023/01/26 10:09:25;;;;;;;;;;;20.30;79.50;;;;;;5114191;28;20385;-45
2023/01/26 10:12:00;;;;;;;;;;;20.20;79.50;;;;;;5088153;28;19908;-45
2023/01/26 10:14:25;;;;;;;;;;;20.20;79.40;;;;;;5096466;28;19908;-47
2023/01/26 10:16:52;;;;;;;;;;;20.20;79.50;;;;;;5096552;28;19927;-48
2023/01/26 10:19:32;;;;;;;;;;;20.20;79.40;;;;;;5096932;28;19934;-46
2023/01/26 10:21:59;;;;;;;;;;;20.20;79.50;;;;;;5099193;28;20324;-48
2023/01/26 10:24:25;;;;;;;;;;;20.30;79.60;;;;;;5117349;28;19915;-48
2023/01/26 10:26:52;;;;;;;;;;;20.30;79.60;;;;;;5116933;28;19911;-46
2023/01/26 10:29:17;;;;;;;;;;;20.30;79.70;;;;;;5116595;28;19999;-46
2023/01/26 10:31:44;;;;;;;;;;;20.30;79.70;;;;;;5085107;28;20190;-48
2023/01/26 10:34:13;;;;;;;;;;;20.30;79.50;;;;;;5081065;28;19959;-49
2023/01/26 10:36:39;;;;;;;;;;;20.30;79.60;;;;;;5085134;28;19919;-44
2023/01/26 10:39:06;;;;;;;;;;;20.30;79.10;;;;;;5097727;28;19914;-45
2023/01/26 10:41:31;;;;;;;;;;;20.30;79.40;;;;;;5116047;28;19916;-47
2023/01/26 10:43:57;;;;;;;;;;;20.30;79.40;;;;;;5095938;28;20373;-45
2023/01/26 10:46:24;;;;;;;;;;;20.30;79.40;;;;;;5096083;28;19908;-44
2023/01/26 10:48:55;;;;;;;;;;;20.20;79.70;;;;;;5097465;28;19950;-44
2023/01/26 10:51:26;;;;;;;;;;;20.10;77.00;;;;;;5096079;28;20209;-45
2023/01/26 10:54:11;;;;;;;;;;;19.60;77.60;;;;;;5096028;28;19918;-45
2023/01/26 10:56:42;;;;;;;;;;;19.60;79.60;;;;;;5075581;28;19956;-46
2023/01/26 10:59:07;;;;;;;;;;;19.50;80.20;;;;;;5108364;28;19915;-44
2023/01/26 11:01:49;;;;;;;;;;;19.60;80.30;;;;;;5116222;28;19953;-44
2023/01/26 11:04:15;;;;;;;;;;;19.60;80.20;;;;;;5115911;28;20311;-45
2023/01/26 11:06:40;;;;;;;;;;;19.70;80.20;;;;;;5100091;28;19908;-45
2023/01/26 11:09:09;;;;;;;;;;;19.70;80.20;;;;;;5077261;28;20307;-45
2023/01/26 11:11:35;;;;;;;;;;;19.80;80.10;;;;;;5111982;28;19912;-44
2023/01/26 11:14:16;;;;;;;;;;;19.90;80.00;;;;;;5115848;28;19908;-44
2023/01/26 11:17:01;;;;;;;;;;;19.90;79.70;;;;;;5115396;28;19915;-44
2023/01/26 11:19:48;;;;;;;;;;;20.00;79.70;;;;;;5097601;28;19912;-44
2023/01/26 11:22:18;;;;;;;;;;;20.00;79.70;;;;;;5113709;28;19908;-45
2023/01/26 11:25:02;;;;;;;;;;;20.10;79.60;;;;;;5115451;28;20010;-45
2023/01/26 11:27:35;;;;;;;;;;;20.10;79.50;;;;;;5113360;28;19907;-43
2023/01/26 11:30:20;;;;;;;;;;;20.10;79.50;;;;;;5095329;28;20014;-43
2023/01/26 11:32:45;;;;;;;;;;;20.40;79.50;;;;;;5095148;28;20401;-44
2023/01/26 11:35:30;;;;;;;;;;;20.30;79.00;;;;;;5076873;28;19908;-46
2023/01/26 11:38:10;;;;;;;;;;;20.40;79.00;;;;;;5095803;28;19966;-47
2023/01/26 11:40:42;;;;;;;;;;;20.30;79.00;;;;;;5099125;28;19912;-44
2023/01/26 11:43:25;;;;;;;;;;;20.30;79.10;;;;;;5095019;28;19911;-44
2023/01/26 11:46:10;;;;;;;;;;;20.30;79.10;;;;;;5112578;28;19911;-44
2023/01/26 11:48:46;;;;;;;;;;;20.30;79.30;;;;;;5115070;28;20296;-47
2023/01/26 11:51:30;;;;;;;;;;;20.30;79.20;;;;;;5095380;28;19916;-46
2023/01/26 11:54:02;;;;;;;;;;;20.40;79.10;;;;;;5094461;28;19953;-44
2023/01/26 11:56:27;;;;;;;;;;;20.40;79.00;;;;;;5094255;28;20010;-44
2023/01/26 11:59:13;;;;;;;;;;;20.50;79.00;;;;;;5098575;28;20007;-43
2023/01/26 12:01:48;;;;;;;;;;;20.60;78.80;;;;;;5114011;28;19915;-43
2023/01/26 12:04:17;;;;;;;;;;;20.50;78.90;;;;;;5114571;28;20281;-44
2023/01/26 12:06:44;;;;;;;;;;;20.50;78.90;;;;;;5114666;28;19915;-45
2023/01/26 12:09:17;;;;;;;;;;;20.60;78.90;;;;;;5114566;28;20021;-45
2023/01/26 12:12:03;;;;;;;;;;;20.50;78.90;;;;;;5074050;28;20007;-47
2023/01/26 12:14:33;;;;;;;;;;;20.40;79.00;;;;;;5100682;28;19941;-47
2023/01/26 12:17:05;;;;;;;;;;;20.50;78.80;;;;;;5100834;28;19969;-44
2023/01/26 12:19:41;;;;;;;;;;;20.40;78.90;;;;;;5105079;28;19941;-44
2023/01/26 12:22:30;;;;;;;;;;;20.30;79.10;;;;;;5110673;28;20328;-44
2023/01/26 12:25:14;;;;;;;;;;;20.30;79.40;;;;;;5096423;28;19972;-43
2023/01/26 12:27:42;;;;;;;;;;;20.20;79.40;;;;;;5111118;28;19994;-42
2023/01/26 12:30:30;;;;;;;;;;;20.20;79.40;;;;;;5094795;28;19962;-41
2023/01/26 12:32:55;;;;;;;;;;;20.20;79.50;;;;;;5094519;28;19912;-41
2023/01/26 12:35:31;;;;;;;;;;;20.20;79.50;;;;;;5093357;28;20038;-41
2023/01/26 12:38:00;;;;;;;;;;;20.20;79.50;;;;;;5094980;28;19920;-42
2023/01/26 12:40:31;;;;;;;;;;;20.20;79.30;;;;;;5089405;28;19944;-41
2023/01/26 12:43:15;;;;;;;;;;;20.30;79.40;;;;;;5086770;28;19915;-42
2023/01/26 12:45:42;;;;;;;;;;;20.30;79.10;;;;;;5101762;28;19912;-43
2023/01/26 12:48:20;;;;;;;;;;;20.40;78.90;;;;;;5076937;28;19915;-41
2023/01/26 12:50:48;;;;;;;;;;;20.50;78.80;;;;;;5109526;28;19919;-42
2023/01/26 12:53:22;;;;;;;;;;;20.60;78.40;;;;;;5092332;28;19919;-42
2023/01/26 12:55:58;;;;;;;;;;;20.60;78.40;;;;;;5093853;28;19920;-42
2023/01/26 12:58:25;;;;;;;;;;;20.70;78.20;;;;;;5100941;28;19969;-42
2023/01/26 13:01:00;;;;;;;;;;;20.60;78.20;;;;;;5081993;28;19916;-42
2023/01/26 13:03:37;;;;;;;;;;;20.60;78.40;;;;;;5069655;28;20259;-40
2023/01/26 13:06:08;;;;;;;;;;;20.40;78.50;;;;;;5093038;28;20319;-40
2023/01/26 13:08:34;;;;;;;;;;;20.40;78.70;;;;;;5093490;28;20270;-41
2023/01/26 13:11:01;;;;;;;;;;;20.40;78.90;;;;;;5093484;28;19908;-43
2023/01/26 13:13:30;;;;;;;;;;;20.40;78.80;;;;;;5093391;28;20316;-41
2023/01/26 13:16:14;;;;;;;;;;;20.40;78.60;;;;;;5099699;28;20007;-40
2023/01/26 13:18:53;;;;;;;;;;;20.50;78.70;;;;;;5104965;28;20010;-40
2023/01/26 13:21:36;;;;;;;;;;;20.50;78.30;;;;;;5092569;28;19948;-45
2023/01/26 13:24:22;;;;;;;;;;;20.70;78.30;;;;;;5086084;28;19924;-49
2023/01/26 13:26:55;;;;;;;;;;;20.80;78.00;;;;;;5091643;28;19977;-46
2023/01/26 13:29:24;;;;;;;;;;;20.70;77.90;;;;;;5098440;28;19923;-45
2023/01/26 13:31:50;;;;;;;;;;;20.80;78.00;;;;;;5106119;28;19945;-45
2023/01/26 13:34:18;;;;;;;;;;;20.80;77.80;;;;;;5113654;28;20241;-47
2023/01/26 13:36:44;;;;;;;;;;;20.80;78.20;;;;;;5113557;28;19926;-44
2023/01/26 13:39:13;;;;;;;;;;;20.70;78.10;;;;;;5099723;28;19919;-47
2023/01/26 13:41:46;;;;;;;;;;;20.60;78.40;;;;;;5096854;28;20273;-45
2023/01/26 13:44:20;;;;;;;;;;;20.50;78.60;;;;;;5107350;28;19916;-46
2023/01/26 13:46:55;;;;;;;;;;;20.50;79.00;;;;;;5117784;28;19908;-45
2023/01/26 13:49:35;;;;;;;;;;;20.40;79.10;;;;;;5112768;28;20405;-45
2023/01/26 13:52:01;;;;;;;;;;;20.40;79.20;;;;;;5097367;28;19953;-45
2023/01/26 13:54:27;;;;;;;;;;;20.50;79.40;;;;;;5096835;28;19908;-45
2023/01/26 13:56:58;;;;;;;;;;;20.50;79.20;;;;;;5096592;28;19920;-46
2023/01/26 13:59:24;;;;;;;;;;;20.70;78.90;;;;;;5096748;28;19958;-47
2023/01/26 14:01:50;;;;;;;;;;;20.80;78.40;;;;;;5099594;28;19972;-46
2023/01/26 14:04:29;;;;;;;;;;;20.90;78.10;;;;;;5117204;28;19961;-45
2023/01/26 14:07:00;;;;;;;;;;;21.00;78.20;;;;;;5096807;28;19930;-46
2023/01/26 14:09:26;;;;;;;;;;;21.00;78.20;;;;;;5096897;28;19989;-45
2023/01/26 14:12:02;;;;;;;;;;;21.00;78.10;;;;;;5096952;28;19912;-45
2023/01/26 14:14:30;;;;;;;;;;;20.80;78.20;;;;;;5076586;28;19909;-45
2023/01/26 14:16:59;;;;;;;;;;;20.70;78.60;;;;;;5106261;28;19916;-44
2023/01/26 14:19:25;;;;;;;;;;;20.50;79.10;;;;;;5101080;28;19950;-46
2023/01/26 14:21:54;;;;;;;;;;;20.40;79.50;;;;;;5095992;28;19908;-46
2023/01/26 14:24:24;;;;;;;;;;;20.20;79.90;;;;;;5112377;28;19912;-47
2023/01/26 14:26:50;;;;;;;;;;;20.00;80.40;;;;;;5116616;28;20331;-44
2023/01/26 14:29:23;;;;;;;;;;;20.00;80.70;;;;;;5112285;28;19955;-45
2023/01/26 14:31:49;;;;;;;;;;;20.10;80.90;;;;;;5104781;28;19912;-45
2023/01/26 14:34:18;;;;;;;;;;;20.20;80.50;;;;;;5099839;28;19912;-44
2023/01/26 14:36:43;;;;;;;;;;;20.50;80.00;;;;;;5100972;28;20338;-43
2023/01/26 14:39:17;;;;;;;;;;;20.70;79.20;;;;;;5105793;28;19971;-46
2023/01/26 14:41:42;;;;;;;;;;;21.00;78.60;;;;;;5090125;28;19923;-44
2023/01/26 14:44:08;;;;;;;;;;;21.10;78.10;;;;;;5094243;28;19912;-43
2023/01/26 14:46:34;;;;;;;;;;;21.20;78.10;;;;;;5097433;28;20313;-42
2023/01/26 14:49:20;;;;;;;;;;;21.20;78.00;;;;;;5095648;28;19908;-46
2023/01/26 14:51:46;;;;;;;;;;;21.10;78.10;;;;;;5095547;28;19908;-45
2023/01/26 14:54:17;;;;;;;;;;;20.90;78.40;;;;;;5099104;28;19915;-44
2023/01/26 14:56:44;;;;;;;;;;;20.80;78.90;;;;;;5115979;28;19912;-45
2023/01/26 14:59:17;;;;;;;;;;;20.60;79.20;;;;;;5115964;28;19912;-44
2023/01/26 15:01:42;;;;;;;;;;;20.40;79.60;;;;;;5103076;28;19916;-43
2023/01/26 15:04:19;;;;;;;;;;;20.30;80.00;;;;;;5095528;28;20046;-43
2023/01/26 15:06:45;;;;;;;;;;;20.20;80.40;;;;;;5095685;28;19908;-44
2023/01/26 15:09:21;;;;;;;;;;;20.30;80.30;;;;;;5095324;28;19915;-45
2023/01/26 15:14:44;;;;;;;;;;;20.60;79.70;;;;;;5115871;28;19922;-43
2023/01/26 15:17:28;;;;;;;;;;;20.80;79.30;;;;;;5115409;28;19947;-43